COYOTE (LAKE MENDOCINO) (COY)

Elevation: 720' · RUSSIAN R basin · Operator: US Army Corps of Engineers

Provisional data, subject to change.
Query executed Saturday at 9:09:20   clock

Select a sensor type for a plot of data.
Note: Reservoir Flows are daily averages.

Earlier

Date RES ELE    STORAGE    RES CHG    TOC STO    ABV TOC    OUTFLOW    INFLOW    PPT INC    TEMP MN    TEMP MX    EVP PAN   
 FEET   AF   AF   AF   AF   CFS   CFS   INCHES   DEG F   DEG F   INCHES  
01/14/2016 724.31 47624 1673 68410 -20786 28 871 0.66 3 9 0.01
01/15/2016 725.41 49259 1635 68410 -19151 28 854 0.46 3 13 0.04
01/16/2016 726.84 51416 2157 68410 -16994 26 1115 0.39 8 15 0.04
01/17/2016 729.92 56164 4748 68410 -12246 42 2437 1.64 11 14 0.01
01/18/2016 731.41 58507 2343 68410 -9903 40 1223 0.01 9 12 0.03
01/19/2016 732.67 60514 2007 68410 -7896 42 1056 0.52 7 16 0.04
01/20/2016 733.25 61445 931 68410 -6965 43 514 0.00 5 13 0.04
01/21/2016 733.64 62075 630 68410 -6335 43 363 0.07 7 17 0.06
01/22/2016 734.10 62819 744 68410 -5591 43 421 0.40 10 17 0.06
01/23/2016 735.09 64431 1612 68410 -3979 43 858 0.22 8 14 0.05
01/24/2016 735.62 65299 868 68410 -3111 43 483 0.14 5 14 0.05
01/25/2016 736.04 65990 691 68410 -2420 43 394 0.19 8 14 0.04
01/26/2016 736.34 66485 495 68410 -1925 43 295 0.02 10 17 0.05
01/27/2016 736.56 66848 363 68410 -1562 43 230 0.02 8 19 0.07
01/28/2016 736.85 67328 480 68410 -1082 43 286 0.39 8 12 0.02
01/29/2016 738.29 69727 2399 68410 1317 43 1254 0.65 9 15 0.02
01/30/2016 739.02 70952 1225 68410 2542 43 664 0.00 5 14 0.05
01/31/2016 739.40 71591 639 68410 3181 45 371 0.00 3 13 0.07
02/01/2016 739.66 72030 439 68410 3620 38 263 0.00 4 13 0.07
02/02/2016 739.87 72385 355 68410 3975 29 211 0.06 4 14 0.06
02/03/2016 740.05 72689 304 68410 4279 29 184 0.19 4 12 0.04
02/04/2016 740.22 72977 288 68410 4567 29 178 0.04 6 16 0.06
02/05/2016 740.35 73197 220 68410 4787 29 144 0.00 2 18 0.07
02/06/2016 740.46 73384 187 68410 4974 29 128 0.00 3 22 0.09
02/07/2016 740.55 73537 153 68410 5127 29 112 0.05 6 27 0.11
02/08/2016 740.63 73672 135 68410 5262 44 118 0.00 8 29 0.11
02/09/2016 740.70 73791 119 68410 5381 45 110 0.04 5 25 0.10
02/10/2016 740.76 73893 102 68410 5483 44 100 0.00 5 25 0.09
02/11/2016 740.82 73995 102 68410 5585 44 100 0.00 8 24 0.10
02/12/2016 740.87 74080 85 68410 5670 44 91 0.00 6 22 0.09
02/13/2016 -- -- -- -- -- -- -- -- -- -- --

Later | Latest

Warning! This data is preliminary and subject to revision.

Show COY Map | Plot COY Data | 1 Month COY Data | Real-Time COY Data | COY Info